Time;durP1;ratioP1;P1;durP2;ratioP2;P2;SDS_P1;SDS_P2;PMS_P1;PMS_P2;Temp;Humidity;BMP_temperature;BMP_pressure;BME280_temperature;BME280_humidity;BME280_pressure;Samples;Min_cycle;Max_cycle;Signal;HPM_P1;HPM_P2
2023/11/18 00:00:13;;;;;;;94.70;89.90;;;;;;;;;;5027708;28;20505;-59
2023/11/18 00:02:38;;;;;;;93.13;88.22;;;;;;;;;;5025802;28;20048;-58
2023/11/18 00:05:07;;;;;;;89.95;85.43;;;;;;;;;;5024908;28;20037;-58
2023/11/18 00:07:32;;;;;;;90.75;86.15;;;;;;;;;;5024087;28;20037;-58
2023/11/18 00:09:57;;;;;;;90.00;85.38;;;;;;;;;;5021640;28;20095;-58
2023/11/18 00:12:24;;;;;;;85.07;80.75;;;;;;;;;;5024721;28;20034;-58
2023/11/18 00:14:49;;;;;;;76.90;73.03;;;;;;;;;;5026638;28;20061;-59
2023/11/18 00:17:15;;;;;;;72.70;68.85;;;;;;;;;;5026089;28;20171;-58
2023/11/18 00:19:42;;;;;;;61.60;58.42;;;;;;;;;;5026039;28;20459;-58
2023/11/18 00:22:08;;;;;;;63.05;59.40;;;;;;;;;;5024063;28;20478;-58
2023/11/18 00:24:34;;;;;;;58.10;55.15;;;;;;;;;;5025260;28;20070;-60
2023/11/18 00:27:05;;;;;;;58.00;55.05;;;;;;;;;;5026238;28;20316;-61
2023/11/18 00:29:32;;;;;;;55.92;53.00;;;;;;;;;;5024821;28;20029;-60
2023/11/18 00:31:58;;;;;;;52.78;50.08;;;;;;;;;;5023714;28;20179;-61
2023/11/18 00:34:23;;;;;;;50.45;47.75;;;;;;;;;;5025129;28;20112;-61
2023/11/18 00:36:48;;;;;;;50.22;47.63;;;;;;;;;;5021449;28;20033;-61
2023/11/18 00:39:14;;;;;;;51.10;48.50;;;;;;;;;;5022149;28;20034;-61
2023/11/18 00:41:39;;;;;;;51.60;48.95;;;;;;;;;;5027058;28;20463;-61
2023/11/18 00:44:08;;;;;;;53.90;51.13;;;;;;;;;;5023012;28;20065;-61
2023/11/18 00:46:35;;;;;;;52.83;50.13;;;;;;;;;;5025828;28;20130;-61
2023/11/18 00:49:01;;;;;;;50.75;48.15;;;;;;;;;;5024173;28;20036;-61
2023/11/18 00:51:27;;;;;;;54.47;51.72;;;;;;;;;;5027125;28;20029;-61
2023/11/18 00:53:54;;;;;;;51.70;49.05;;;;;;;;;;5023712;28;20056;-61
2023/11/18 00:56:21;;;;;;;50.70;48.10;;;;;;;;;;5024407;28;20029;-61
2023/11/18 00:58:47;;;;;;;52.75;49.92;;;;;;;;;;5021955;28;20506;-60
2023/11/18 01:01:12;;;;;;;55.97;53.15;;;;;;;;;;5022705;28;20041;-61
2023/11/18 01:03:38;;;;;;;51.95;49.15;;;;;;;;;;5023300;28;20115;-60
2023/11/18 01:06:05;;;;;;;54.25;51.45;;;;;;;;;;5023235;28;20497;-61
2023/11/18 01:08:31;;;;;;;50.28;47.65;;;;;;;;;;5025022;28;20040;-61
2023/11/18 01:10:57;;;;;;;49.95;47.38;;;;;;;;;;5024488;28;20040;-61
2023/11/18 01:13:22;;;;;;;52.67;49.97;;;;;;;;;;5021711;28;20040;-61
2023/11/18 01:15:49;;;;;;;49.97;47.17;;;;;;;;;;5024980;28;20033;-61
2023/11/18 01:18:14;;;;;;;48.45;45.90;;;;;;;;;;5023094;28;20033;-61
2023/11/18 01:20:40;;;;;;;50.10;47.50;;;;;;;;;;5027054;28;20481;-61
2023/11/18 01:23:05;;;;;;;48.03;45.55;;;;;;;;;;5022747;28;20041;-61
2023/11/18 01:25:31;;;;;;;48.90;46.40;;;;;;;;;;5022628;28;20348;-61
2023/11/18 01:27:56;;;;;;;48.55;46.05;;;;;;;;;;5021666;28;20059;-61
2023/11/18 01:30:23;;;;;;;47.03;44.63;;;;;;;;;;5024337;28;20036;-61
2023/11/18 01:32:49;;;;;;;46.28;43.83;;;;;;;;;;5026104;28;20026;-61
2023/11/18 01:35:14;;;;;;;47.05;44.60;;;;;;;;;;5022517;28;20048;-61
2023/11/18 01:37:40;;;;;;;46.10;43.75;;;;;;;;;;5021757;28;20044;-61
2023/11/18 01:40:07;;;;;;;48.97;46.42;;;;;;;;;;5021314;28;20048;-61
2023/11/18 01:42:33;;;;;;;47.83;45.25;;;;;;;;;;5023028;28;20155;-61
2023/11/18 01:44:59;;;;;;;48.97;46.25;;;;;;;;;;5021995;28;20029;-61
2023/11/18 01:47:26;;;;;;;50.95;48.05;;;;;;;;;;5022377;28;20116;-61
2023/11/18 01:49:52;;;;;;;50.70;47.90;;;;;;;;;;5024765;28;20060;-61
2023/11/18 01:52:18;;;;;;;50.30;47.53;;;;;;;;;;5024548;28;20424;-61
2023/11/18 01:54:44;;;;;;;48.47;45.97;;;;;;;;;;5020660;28;20072;-62
2023/11/18 01:57:10;;;;;;;49.75;46.63;;;;;;;;;;5022125;28;20104;-61
2023/11/18 01:59:37;;;;;;;47.53;45.03;;;;;;;;;;5030068;28;20045;-61
2023/11/18 02:02:04;;;;;;;47.28;44.83;;;;;;;;;;5023291;28;20044;-61
2023/11/18 02:04:30;;;;;;;48.92;46.42;;;;;;;;;;5030702;28;20067;-61
2023/11/18 02:06:56;;;;;;;48.83;46.30;;;;;;;;;;5024056;28;20196;-61
2023/11/18 02:09:28;;;;;;;46.25;43.85;;;;;;;;;;5032959;28;20029;-61
2023/11/18 02:11:54;;;;;;;49.40;46.83;;;;;;;;;;5033228;28;20041;-61
2023/11/18 02:14:22;;;;;;;49.30;46.67;;;;;;;;;;5028279;28;20037;-61
2023/11/18 02:16:49;;;;;;;48.72;46.15;;;;;;;;;;5026518;28;20037;-61
2023/11/18 02:19:24;;;;;;;48.80;46.17;;;;;;;;;;5029815;28;20029;-61
2023/11/18 02:21:53;;;;;;;49.58;47.05;;;;;;;;;;5028584;28;20046;-61
2023/11/18 02:24:26;;;;;;;51.72;49.03;;;;;;;;;;5028930;28;20595;-61
2023/11/18 02:26:52;;;;;;;50.70;48.03;;;;;;;;;;5026154;28;20034;-61
2023/11/18 02:29:18;;;;;;;50.22;47.65;;;;;;;;;;5014872;28;20041;-63
2023/11/18 02:31:46;;;;;;;49.00;46.30;;;;;;;;;;5034599;28;20036;-61
2023/11/18 02:34:23;;;;;;;49.35;46.78;;;;;;;;;;5032486;28;20053;-60
2023/11/18 02:36:50;;;;;;;49.22;46.55;;;;;;;;;;5027502;28;20310;-61
2023/11/18 02:39:21;;;;;;;52.15;49.40;;;;;;;;;;5027043;28;20041;-61
2023/11/18 02:41:51;;;;;;;50.55;47.88;;;;;;;;;;5028099;28;20036;-60
2023/11/18 02:44:17;;;;;;;49.00;46.45;;;;;;;;;;5028042;28;20566;-61
2023/11/18 02:46:43;;;;;;;52.08;49.33;;;;;;;;;;5028702;28;20172;-60
2023/11/18 02:49:09;;;;;;;52.20;49.50;;;;;;;;;;5026626;28;20054;-61
2023/11/18 02:51:39;;;;;;;48.70;46.05;;;;;;;;;;5027926;28;20029;-61
2023/11/18 02:54:10;;;;;;;47.63;45.03;;;;;;;;;;5025973;28;20479;-61
2023/11/18 02:56:38;;;;;;;;;;;;;;;;;;5029254;28;20048;-61
2023/11/18 02:59:07;;;;;;;45.00;42.67;;;;;;;;;;5026189;28;19913;-61
2023/11/18 03:01:38;;;;;;;46.40;43.85;;;;;;;;;;5026847;28;20033;-61
2023/11/18 03:04:05;;;;;;;45.58;43.22;;;;;;;;;;5024955;28;20026;-61
2023/11/18 03:06:32;;;;;;;47.25;44.63;;;;;;;;;;5026633;28;20521;-61
2023/11/18 03:08:57;;;;;;;46.67;44.28;;;;;;;;;;5029176;28;20034;-61
2023/11/18 03:11:22;;;;;;;49.17;46.58;;;;;;;;;;5012232;28;20036;-61
2023/11/18 03:13:48;;;;;;;44.88;42.53;;;;;;;;;;5023919;28;20029;-61
2023/11/18 03:16:14;;;;;;;48.38;45.85;;;;;;;;;;5025574;28;20041;-60
2023/11/18 03:18:40;;;;;;;49.60;46.95;;;;;;;;;;5026628;28;20084;-61
2023/11/18 03:21:12;;;;;;;49.33;46.72;;;;;;;;;;5019935;28;20029;-61
2023/11/18 03:23:38;;;;;;;48.30;45.80;;;;;;;;;;5028487;28;20481;-60
2023/11/18 03:26:05;;;;;;;46.60;44.13;;;;;;;;;;5024461;28;20080;-61
2023/11/18 03:28:31;;;;;;;49.90;47.20;;;;;;;;;;5027319;28;20547;-61
2023/11/18 03:30:57;;;;;;;48.55;46.05;;;;;;;;;;5025761;28;20045;-61
2023/11/18 03:33:23;;;;;;;48.08;45.65;;;;;;;;;;5029059;28;20033;-61
2023/11/18 03:35:48;;;;;;;49.00;46.25;;;;;;;;;;5025466;28;20040;-61
2023/11/18 03:38:14;;;;;;;50.95;48.33;;;;;;;;;;5026527;28;20037;-61
2023/11/18 03:40:41;;;;;;;48.53;46.03;;;;;;;;;;5031699;28;20041;-61
2023/11/18 03:43:07;;;;;;;50.25;47.47;;;;;;;;;;5038569;28;20065;-61
2023/11/18 03:45:33;;;;;;;48.22;45.72;;;;;;;;;;5026115;28;20045;-61
2023/11/18 03:48:00;;;;;;;48.55;46.00;;;;;;;;;;5023963;28;20082;-61
2023/11/18 03:50:26;;;;;;;50.00;47.40;;;;;;;;;;5025645;28;20037;-61
2023/11/18 03:52:51;;;;;;;50.58;47.97;;;;;;;;;;5026591;28;20050;-61
2023/11/18 03:55:18;;;;;;;50.22;47.63;;;;;;;;;;5024613;28;20096;-61
2023/11/18 03:57:45;;;;;;;51.00;48.05;;;;;;;;;;5024700;28;20054;-61
2023/11/18 04:00:11;;;;;;;49.80;46.95;;;;;;;;;;5023730;28;20120;-61
2023/11/18 04:02:37;;;;;;;48.63;46.13;;;;;;;;;;5023571;28;20332;-60
2023/11/18 04:05:03;;;;;;;51.13;48.17;;;;;;;;;;5025489;28;20056;-61
2023/11/18 04:07:29;;;;;;;50.95;47.97;;;;;;;;;;5023555;28;20040;-61
2023/11/18 04:09:54;;;;;;;50.00;47.40;;;;;;;;;;5025645;28;20041;-61
2023/11/18 04:12:19;;;;;;;49.55;47.05;;;;;;;;;;5023691;28;20551;-61
2023/11/18 04:14:45;;;;;;;47.60;45.10;;;;;;;;;;5025385;28;20025;-61
2023/11/18 04:17:10;;;;;;;48.80;46.22;;;;;;;;;;5025241;28;20037;-61
2023/11/18 04:19:36;;;;;;;48.53;45.90;;;;;;;;;;5023065;28;20522;-61
2023/11/18 04:22:02;;;;;;;47.50;44.85;;;;;;;;;;5023010;28;20037;-61
2023/11/18 04:24:27;;;;;;;49.72;46.95;;;;;;;;;;5026098;28;20084;-61
2023/11/18 04:26:55;;;;;;;53.50;50.30;;;;;;;;;;5024408;28;20041;-61
2023/11/18 04:29:21;;;;;;;51.65;48.95;;;;;;;;;;5024567;28;20053;-61
2023/11/18 04:31:46;;;;;;;53.25;50.45;;;;;;;;;;5026084;28;20083;-61
2023/11/18 04:34:13;;;;;;;52.28;49.42;;;;;;;;;;5021478;28;20037;-61
2023/11/18 04:36:41;;;;;;;49.97;47.13;;;;;;;;;;5025759;28;20042;-61
2023/11/18 04:39:06;;;;;;;51.50;48.80;;;;;;;;;;5026081;28;20478;-61
2023/11/18 04:41:32;;;;;;;52.03;49.33;;;;;;;;;;5023557;28;20038;-61
2023/11/18 04:43:58;;;;;;;53.60;50.72;;;;;;;;;;5023022;28;20051;-61
2023/11/18 04:46:23;;;;;;;50.88;48.22;;;;;;;;;;5024213;28;20041;-61
2023/11/18 04:48:48;;;;;;;49.90;47.28;;;;;;;;;;5025723;28;20244;-61
2023/11/18 04:51:14;;;;;;;50.33;47.72;;;;;;;;;;5024810;28;20068;-61
2023/11/18 04:53:39;;;;;;;52.65;49.97;;;;;;;;;;5025906;28;20033;-61
2023/11/18 04:56:09;;;;;;;49.75;47.20;;;;;;;;;;5026525;28;20033;-62
2023/11/18 04:58:34;;;;;;;51.58;48.92;;;;;;;;;;5025088;28;20517;-61
2023/11/18 05:01:00;;;;;;;51.15;48.40;;;;;;;;;;5024382;28;20182;-61
2023/11/18 05:03:26;;;;;;;50.67;48.08;;;;;;;;;;5024355;28;20067;-61
2023/11/18 05:05:51;;;;;;;52.45;49.45;;;;;;;;;;5025157;28;20029;-61
2023/11/18 05:08:20;;;;;;;51.17;48.47;;;;;;;;;;5022876;28;20460;-61
2023/11/18 05:10:50;;;;;;;51.22;48.63;;;;;;;;;;5022160;28;20062;-61
2023/11/18 05:13:16;;;;;;;50.75;48.10;;;;;;;;;;5022392;28;20037;-61
2023/11/18 05:15:45;;;;;;;50.97;48.33;;;;;;;;;;5028252;28;20036;-61
2023/11/18 05:18:14;;;;;;;50.30;47.67;;;;;;;;;;5028842;28;20037;-61
2023/11/18 05:20:44;;;;;;;49.08;46.53;;;;;;;;;;5021614;28;20459;-61
2023/11/18 05:23:10;;;;;;;50.92;48.28;;;;;;;;;;5025413;28;20140;-61
2023/11/18 05:25:36;;;;;;;49.47;46.90;;;;;;;;;;5022962;28;20184;-60
2023/11/18 05:28:03;;;;;;;49.75;47.17;;;;;;;;;;5022373;28;20033;-61
2023/11/18 05:30:30;;;;;;;48.90;46.38;;;;;;;;;;5023269;28;20025;-61
2023/11/18 05:32:56;;;;;;;49.53;46.67;;;;;;;;;;5026025;28;20038;-61
2023/11/18 05:35:28;;;;;;;47.95;45.47;;;;;;;;;;5022645;28;20034;-61
2023/11/18 05:37:54;;;;;;;47.17;44.75;;;;;;;;;;5023326;28;20042;-61
2023/11/18 05:40:20;;;;;;;47.28;44.72;;;;;;;;;;5026791;28;20037;-61
2023/11/18 05:42:48;;;;;;;49.33;46.78;;;;;;;;;;5022164;28;20048;-62
2023/11/18 05:45:27;;;;;;;51.22;48.60;;;;;;;;;;5020194;28;20051;-62
2023/11/18 05:47:56;;;;;;;47.63;45.08;;;;;;;;;;5024765;28;20120;-62
2023/11/18 05:50:25;;;;;;;48.47;45.90;;;;;;;;;;5022936;28;20459;-61
2023/11/18 05:52:51;;;;;;;48.70;46.13;;;;;;;;;;5022788;28;20712;-62
2023/11/18 05:55:16;;;;;;;49.97;47.35;;;;;;;;;;5021474;28;20041;-61
2023/11/18 05:57:44;;;;;;;47.78;45.28;;;;;;;;;;5023361;28;20047;-62
2023/11/18 06:00:15;;;;;;;51.75;49.10;;;;;;;;;;5024687;28;20038;-62
2023/11/18 06:02:41;;;;;;;48.25;45.78;;;;;;;;;;5029556;28;20675;-62
2023/11/18 06:05:07;;;;;;;50.35;47.75;;;;;;;;;;5024138;28;20386;-61
2023/11/18 06:07:34;;;;;;;49.35;46.72;;;;;;;;;;5021969;28;20395;-62
2023/11/18 06:09:59;;;;;;;47.95;45.45;;;;;;;;;;5023769;28;20034;-61
2023/11/18 06:12:24;;;;;;;52.00;49.28;;;;;;;;;;5025963;28;20088;-62
2023/11/18 06:14:51;;;;;;;48.80;46.25;;;;;;;;;;5023145;28;20083;-62
2023/11/18 06:17:18;;;;;;;48.10;45.63;;;;;;;;;;5027043;28;20048;-62
2023/11/18 06:19:44;;;;;;;52.58;49.47;;;;;;;;;;5041860;28;20056;-62
2023/11/18 06:22:10;;;;;;;46.80;44.42;;;;;;;;;;5024143;28;20156;-62
2023/11/18 06:24:35;;;;;;;47.47;44.97;;;;;;;;;;5024631;28;20099;-62
2023/11/18 06:27:01;;;;;;;51.72;48.95;;;;;;;;;;5020821;28;20520;-62
2023/11/18 06:29:26;;;;;;;49.65;46.95;;;;;;;;;;5022079;28;20041;-62
2023/11/18 06:31:52;;;;;;;51.75;48.90;;;;;;;;;;5025480;28;20041;-62
2023/11/18 06:34:18;;;;;;;54.83;51.95;;;;;;;;;;5020563;28;20041;-62
2023/11/18 06:36:43;;;;;;;52.72;50.00;;;;;;;;;;5021053;28;20079;-62
2023/11/18 06:39:08;;;;;;;53.50;50.60;;;;;;;;;;5023927;28;20376;-62
2023/11/18 06:41:36;;;;;;;50.08;47.38;;;;;;;;;;5022524;28;20029;-62
2023/11/18 06:44:09;;;;;;;51.33;48.67;;;;;;;;;;5022765;28;20463;-62
2023/11/18 06:46:34;;;;;;;49.72;47.13;;;;;;;;;;5022182;28;20041;-62
2023/11/18 06:49:06;;;;;;;47.88;45.40;;;;;;;;;;5022955;28;20060;-63
2023/11/18 06:51:34;;;;;;;49.30;46.70;;;;;;;;;;5021722;28;20051;-63
2023/11/18 06:54:02;;;;;;;49.47;46.83;;;;;;;;;;5023091;28;20103;-63
2023/11/18 06:56:28;;;;;;;49.83;47.25;;;;;;;;;;5022231;28;20521;-63
2023/11/18 06:58:54;;;;;;;50.15;47.50;;;;;;;;;;5026431;28;20033;-63
2023/11/18 07:01:19;;;;;;;52.30;49.60;;;;;;;;;;5024930;28;20045;-63
2023/11/18 07:03:48;;;;;;;49.50;46.83;;;;;;;;;;5022770;28;20037;-63
2023/11/18 07:06:21;;;;;;;49.53;46.92;;;;;;;;;;5022002;28;20435;-63
2023/11/18 07:08:50;;;;;;;55.00;51.78;;;;;;;;;;5030231;28;20056;-63
2023/11/18 07:11:17;;;;;;;57.75;54.15;;;;;;;;;;5025584;28;20048;-63
2023/11/18 07:13:43;;;;;;;62.58;57.58;;;;;;;;;;5006139;28;20042;-64
2023/11/18 07:16:09;;;;;;;50.95;47.42;;;;;;;;;;5025246;28;20041;-62
2023/11/18 07:18:38;;;;;;;52.50;49.67;;;;;;;;;;5026027;28;20070;-63
2023/11/18 07:21:05;;;;;;;48.65;46.03;;;;;;;;;;5024075;28;20033;-63
2023/11/18 07:23:31;;;;;;;49.50;46.90;;;;;;;;;;5024690;28;20056;-62
2023/11/18 07:25:57;;;;;;;47.05;44.60;;;;;;;;;;5027569;28;20045;-62
2023/11/18 07:28:23;;;;;;;47.97;45.38;;;;;;;;;;5029682;28;20033;-62
2023/11/18 07:30:48;;;;;;;51.58;48.72;;;;;;;;;;5024950;28;20051;-62
2023/11/18 07:33:18;;;;;;;48.58;46.00;;;;;;;;;;5028705;28;20048;-61
2023/11/18 07:35:48;;;;;;;48.17;45.67;;;;;;;;;;5023137;28;20025;-62
2023/11/18 07:38:15;;;;;;;49.63;46.95;;;;;;;;;;5030492;28;20116;-63
2023/11/18 07:40:42;;;;;;;49.67;46.70;;;;;;;;;;5028859;28;20107;-62
2023/11/18 07:43:08;;;;;;;47.97;45.40;;;;;;;;;;5030208;28;20697;-62
2023/11/18 07:45:39;;;;;;;44.90;42.47;;;;;;;;;;5027419;28;20041;-63
2023/11/18 07:48:06;;;;;;;47.03;44.40;;;;;;;;;;5024296;28;20211;-63
2023/11/18 07:50:37;;;;;;;45.55;43.10;;;;;;;;;;5026314;28;20124;-61
2023/11/18 07:53:02;;;;;;;45.30;42.70;;;;;;;;;;5020897;28;20045;-62
2023/11/18 07:55:29;;;;;;;46.00;43.30;;;;;;;;;;5021164;28;20056;-61
2023/11/18 07:57:54;;;;;;;45.92;43.40;;;;;;;;;;5020627;28;20612;-62
2023/11/18 08:00:20;;;;;;;44.17;41.78;;;;;;;;;;5026081;28;20052;-61
2023/11/18 08:02:45;;;;;;;40.65;38.53;;;;;;;;;;5024652;28;20038;-62
2023/11/18 08:05:15;;;;;;;43.60;41.25;;;;;;;;;;5024988;28;20049;-62
2023/11/18 08:07:44;;;;;;;45.65;42.95;;;;;;;;;;5025135;28;20028;-62
2023/11/18 08:10:12;;;;;;;47.85;45.25;;;;;;;;;;5027293;28;20422;-62
2023/11/18 08:12:38;;;;;;;46.00;42.90;;;;;;;;;;5022632;28;20060;-62
2023/11/18 08:15:06;;;;;;;45.38;42.83;;;;;;;;;;5023020;28;20138;-62
2023/11/18 08:17:31;;;;;;;47.10;44.47;;;;;;;;;;5026528;28;20495;-62
2023/11/18 08:19:57;;;;;;;45.22;42.53;;;;;;;;;;5028740;28;20067;-62
2023/11/18 08:22:23;;;;;;;45.35;42.83;;;;;;;;;;5028076;28;20039;-62
2023/11/18 08:24:49;;;;;;;44.92;42.53;;;;;;;;;;5025899;28;20038;-62
2023/11/18 08:27:14;;;;;;;45.65;43.15;;;;;;;;;;5022340;28;20041;-62
2023/11/18 08:29:41;;;;;;;46.35;43.85;;;;;;;;;;5025939;28;20036;-62
2023/11/18 08:32:09;;;;;;;48.53;45.40;;;;;;;;;;5025134;28;20441;-62
2023/11/18 08:34:37;;;;;;;46.97;44.53;;;;;;;;;;5024150;28;20038;-62
2023/11/18 08:37:04;;;;;;;46.45;43.33;;;;;;;;;;5023369;28;20037;-62
2023/11/18 08:39:30;;;;;;;45.08;42.65;;;;;;;;;;5022315;28;20530;-62
2023/11/18 08:41:56;;;;;;;50.85;47.83;;;;;;;;;;5024995;28;20026;-62
2023/11/18 08:44:22;;;;;;;49.50;46.60;;;;;;;;;;5023985;28;20033;-59
2023/11/18 08:46:48;;;;;;;48.47;45.88;;;;;;;;;;5023490;28;20060;-59
2023/11/18 08:49:13;;;;;;;52.15;48.90;;;;;;;;;;5026360;28;20033;-59
2023/11/18 08:51:41;;;;;;;49.22;46.63;;;;;;;;;;5021244;28;20048;-59
2023/11/18 08:54:22;;;;;;;51.13;47.90;;;;;;;;;;5027885;28;20131;-59
2023/11/18 08:56:50;;;;;;;51.93;49.13;;;;;;;;;;5022109;28;21017;-59
2023/11/18 08:59:22;;;;;;;52.20;49.38;;;;;;;;;;5022330;28;20280;-59
2023/11/18 09:01:48;;;;;;;54.83;51.67;;;;;;;;;;5022157;28;20039;-59
2023/11/18 09:04:14;;;;;;;50.53;47.75;;;;;;;;;;5026036;28;20029;-60
2023/11/18 09:06:40;;;;;;;57.05;53.28;;;;;;;;;;5021826;28;20048;-59
2023/11/18 09:09:11;;;;;;;56.47;52.25;;;;;;;;;;5027084;28;20095;-59
2023/11/18 09:11:39;;;;;;;;;;;;;;;;;;5019638;28;20038;-59
2023/11/18 09:14:07;;;;;;;51.15;48.05;;;;;;;;;;5025117;28;19920;-59
2023/11/18 09:16:38;;;;;;;56.92;53.92;;;;;;;;;;5023354;28;20515;-59
2023/11/18 09:19:05;;;;;;;53.22;50.33;;;;;;;;;;5030152;28;20320;-59
2023/11/18 09:21:35;;;;;;;58.72;55.58;;;;;;;;;;5025586;28;20029;-59
2023/11/18 09:24:04;;;;;;;59.40;56.20;;;;;;;;;;5024277;28;20029;-59
2023/11/18 09:26:30;;;;;;;60.50;57.13;;;;;;;;;;5023885;28;20137;-59
2023/11/18 09:28:56;;;;;;;58.63;55.60;;;;;;;;;;5022309;28;20041;-59
2023/11/18 09:31:21;;;;;;;63.90;60.58;;;;;;;;;;5012125;28;20057;-59
2023/11/18 09:33:51;;;;;;;67.50;63.75;;;;;;;;;;5021704;28;20056;-62
2023/11/18 09:36:18;;;;;;;68.57;65.05;;;;;;;;;;5023047;28;20087;-62
2023/11/18 09:38:47;;;;;;;74.25;70.38;;;;;;;;;;5021541;28;20049;-61
2023/11/18 09:41:13;;;;;;;71.53;67.88;;;;;;;;;;5019428;28;20106;-62
2023/11/18 09:43:46;;;;;;;77.38;73.25;;;;;;;;;;5018926;28;20053;-62
2023/11/18 09:46:15;;;;;;;79.43;75.28;;;;;;;;;;5024490;28;20123;-62
2023/11/18 09:49:17;;;;;;;89.18;84.63;;;;;;;;;;5021217;28;20033;-62
2023/11/18 09:51:47;;;;;;;89.07;84.57;;;;;;;;;;5021790;28;20625;-62
2023/11/18 09:54:52;;;;;;;89.40;84.40;;;;;;;;;;5024048;28;20044;-62
2023/11/18 09:57:33;;;;;;;94.63;89.70;;;;;;;;;;5021263;28;20292;-61
2023/11/18 10:00:26;;;;;;;;;;;;;;;;;;5024553;28;20041;-61
2023/11/18 10:02:52;;;;;;;81.88;77.22;;;;;;;;;;5022116;28;19916;-62
2023/11/18 10:05:26;;;;;;;91.45;86.63;;;;;;;;;;5020269;28;20151;-62
2023/11/18 10:07:52;;;;;;;104.55;99.18;;;;;;;;;;5019493;28;20473;-62
2023/11/18 10:10:20;;;;;;;106.93;101.45;;;;;;;;;;5021941;28;20053;-62
2023/11/18 10:12:57;;;;;;;109.18;103.30;;;;;;;;;;5022041;28;20036;-62
2023/11/18 10:15:24;;;;;;;113.82;107.85;;;;;;;;;;5022338;28;20029;-62
2023/11/18 10:18:09;;;;;;;112.47;106.45;;;;;;;;;;5020170;28;20560;-62
2023/11/18 10:20:51;;;;;;;113.60;107.70;;;;;;;;;;5024907;28;20026;-62
2023/11/18 10:23:20;;;;;;;130.75;124.03;;;;;;;;;;5024799;28;20044;-62
2023/11/18 10:25:52;;;;;;;110.88;105.28;;;;;;;;;;5023003;28;20040;-62
2023/11/18 10:28:37;;;;;;;105.22;99.82;;;;;;;;;;5022801;28;20455;-62
2023/11/18 10:31:05;;;;;;;102.68;97.32;;;;;;;;;;5023547;28;20038;-62
2023/11/18 10:33:43;;;;;;;102.85;97.53;;;;;;;;;;5025913;28;20128;-61
2023/11/18 10:36:23;;;;;;;105.22;99.82;;;;;;;;;;5030164;28;20463;-61
2023/11/18 10:38:49;;;;;;;101.82;96.35;;;;;;;;;;5025615;28;20037;-62
2023/11/18 10:41:16;;;;;;;107.10;101.72;;;;;;;;;;5023180;28;20313;-62
2023/11/18 10:43:44;;;;;;;108.32;102.78;;;;;;;;;;5025086;28;20180;-59
2023/11/18 10:46:11;;;;;;;110.72;104.63;;;;;;;;;;5024859;28;20045;-60
2023/11/18 10:48:41;;;;;;;109.18;103.70;;;;;;;;;;5025976;28;20033;-61
2023/11/18 10:51:12;;;;;;;111.95;106.10;;;;;;;;;;5027776;28;20060;-58
2023/11/18 10:53:38;;;;;;;103.13;97.90;;;;;;;;;;5023608;28;20068;-58
2023/11/18 10:56:19;;;;;;;100.70;95.53;;;;;;;;;;5027777;28;20340;-59
2023/11/18 10:58:45;;;;;;;98.35;93.30;;;;;;;;;;5025116;28;20888;-59
2023/11/18 11:01:12;;;;;;;97.75;92.68;;;;;;;;;;5026318;28;20132;-59
2023/11/18 11:03:57;;;;;;;91.55;86.93;;;;;;;;;;5029236;28;20497;-59
2023/11/18 11:06:30;;;;;;;91.20;86.47;;;;;;;;;;5027183;28;20044;-59
2023/11/18 11:08:58;;;;;;;84.82;80.43;;;;;;;;;;5023066;28;20037;-59
2023/11/18 11:11:26;;;;;;;79.68;75.65;;;;;;;;;;5024560;28;20379;-59
2023/11/18 11:14:03;;;;;;;87.68;83.22;;;;;;;;;;5028500;28;20034;-58
2023/11/18 11:16:37;;;;;;;82.55;78.25;;;;;;;;;;5028023;28;20107;-58
2023/11/18 11:19:08;;;;;;;76.82;72.85;;;;;;;;;;5023239;28;20056;-58
2023/11/18 11:21:47;;;;;;;;;;;;;;;;;;5023627;28;20129;-58
2023/11/18 11:24:36;;;;;;;73.00;69.15;;;;;;;;;;5027187;28;19919;-58
2023/11/18 11:27:35;;;;;;;77.45;73.53;;;;;;;;;;5022523;28;20024;-58
2023/11/18 11:30:28;;;;;;;75.72;71.93;;;;;;;;;;5024018;28;20127;-58
2023/11/18 11:33:12;;;;;;;77.30;73.38;;;;;;;;;;5020153;28;20086;-59
2023/11/18 11:35:44;;;;;;;79.63;75.43;;;;;;;;;;5022019;28;20042;-58
2023/11/18 11:38:13;;;;;;;86.88;82.47;;;;;;;;;;5023932;28;20444;-58
2023/11/18 11:40:41;;;;;;;88.20;83.75;;;;;;;;;;5026804;28;20102;-58
2023/11/18 11:43:15;;;;;;;89.05;84.47;;;;;;;;;;5022982;28;20499;-59
2023/11/18 11:45:42;;;;;;;79.68;75.43;;;;;;;;;;5024265;28;20088;-58
2023/11/18 11:48:16;;;;;;;80.15;76.05;;;;;;;;;;5023197;28;20330;-58
2023/11/18 11:50:54;;;;;;;81.82;77.60;;;;;;;;;;5023908;28;20388;-59
2023/11/18 11:53:23;;;;;;;75.68;71.70;;;;;;;;;;5024868;28;20029;-59
2023/11/18 11:55:53;;;;;;;80.13;75.82;;;;;;;;;;5022940;28;20092;-59
2023/11/18 11:58:27;;;;;;;71.50;67.90;;;;;;;;;;5022840;28;20133;-59
2023/11/18 12:00:54;;;;;;;71.55;67.75;;;;;;;;;;5022420;28;20044;-59
2023/11/18 12:03:22;;;;;;;83.05;76.55;;;;;;;;;;5026549;28;20033;-60
2023/11/18 12:05:49;;;;;;;69.32;65.43;;;;;;;;;;5020808;28;20075;-58
2023/11/18 12:08:16;;;;;;;69.95;65.68;;;;;;;;;;5023029;28;20073;-58
2023/11/18 12:10:54;;;;;;;63.92;60.63;;;;;;;;;;5021558;28;20033;-59
2023/11/18 12:13:19;;;;;;;74.55;69.72;;;;;;;;;;5023827;28;20597;-58
2023/11/18 12:16:03;;;;;;;68.88;65.38;;;;;;;;;;5025081;28;20065;-59
2023/11/18 12:18:31;;;;;;;70.75;65.47;;;;;;;;;;5026203;28;20238;-58
2023/11/18 12:21:01;;;;;;;71.35;66.57;;;;;;;;;;5024011;28;20075;-59
2023/11/18 12:23:27;;;;;;;65.80;62.33;;;;;;;;;;5023858;28;20028;-58
2023/11/18 12:25:54;;;;;;;62.38;59.05;;;;;;;;;;5028462;28;20036;-58
2023/11/18 12:28:26;;;;;;;62.80;59.38;;;;;;;;;;5025079;28;20025;-58
2023/11/18 12:30:55;;;;;;;62.90;59.70;;;;;;;;;;5027511;28;20029;-58
2023/11/18 12:33:28;;;;;;;68.28;63.67;;;;;;;;;;5021730;28;20742;-58
2023/11/18 12:36:07;;;;;;;63.00;59.78;;;;;;;;;;5022677;28;20044;-58
2023/11/18 12:39:00;;;;;;;64.03;60.72;;;;;;;;;;5026042;28;20029;-56
2023/11/18 12:41:38;;;;;;;65.68;62.28;;;;;;;;;;5025999;28;20041;-58
2023/11/18 12:44:17;;;;;;;67.80;64.38;;;;;;;;;;5025197;28;20033;-57
2023/11/18 12:47:18;;;;;;;64.63;61.33;;;;;;;;;;5029908;28;20465;-58
2023/11/18 12:49:56;;;;;;;66.07;62.57;;;;;;;;;;5000741;28;20133;-57
2023/11/18 12:52:23;;;;;;;62.08;58.25;;;;;;;;;;5025604;28;20398;-57
2023/11/18 12:54:51;;;;;;;66.45;60.90;;;;;;;;;;5023497;28;20318;-60
2023/11/18 12:57:22;;;;;;;68.32;64.65;;;;;;;;;;5025845;28;20064;-61
2023/11/18 12:59:49;;;;;;;68.25;64.78;;;;;;;;;;5022790;28;20423;-61
2023/11/18 13:02:19;;;;;;;71.20;67.55;;;;;;;;;;5027685;28;20044;-59
2023/11/18 13:04:49;;;;;;;68.50;64.97;;;;;;;;;;5022488;28;20360;-59
2023/11/18 13:07:18;;;;;;;70.47;66.78;;;;;;;;;;5020772;28;20467;-59
2023/11/18 13:09:45;;;;;;;71.88;68.20;;;;;;;;;;5018894;28;20094;-59
2023/11/18 13:12:14;;;;;;;77.85;73.75;;;;;;;;;;5025274;28;20047;-59
2023/11/18 13:14:42;;;;;;;69.75;66.15;;;;;;;;;;5024041;28;20053;-59
2023/11/18 13:17:15;;;;;;;68.72;65.22;;;;;;;;;;5016309;28;20028;-60
2023/11/18 13:19:42;;;;;;;70.72;67.15;;;;;;;;;;5022793;28;20367;-61
2023/11/18 13:22:12;;;;;;;79.53;75.50;;;;;;;;;;5023001;28;20072;-61
2023/11/18 13:24:44;;;;;;;72.32;68.68;;;;;;;;;;5022933;28;20045;-61
2023/11/18 13:27:10;;;;;;;67.32;63.92;;;;;;;;;;5020677;28;20044;-61
2023/11/18 13:29:39;;;;;;;68.55;65.05;;;;;;;;;;5021906;28;20033;-59
2023/11/18 13:32:06;;;;;;;71.97;68.13;;;;;;;;;;5023616;28;20090;-61
2023/11/18 13:34:35;;;;;;;68.88;65.40;;;;;;;;;;5025362;28;20448;-58
2023/11/18 13:37:01;;;;;;;72.97;68.55;;;;;;;;;;5025029;28;20562;-61
2023/11/18 13:39:27;;;;;;;70.55;66.93;;;;;;;;;;5025099;28;20030;-61
2023/11/18 13:41:53;;;;;;;68.38;64.88;;;;;;;;;;5020495;28;20076;-61
2023/11/18 13:44:34;;;;;;;67.63;64.10;;;;;;;;;;5025569;28;20029;-61
2023/11/18 13:47:01;;;;;;;73.85;69.88;;;;;;;;;;5020839;28;20041;-61
2023/11/18 13:49:29;;;;;;;74.85;71.00;;;;;;;;;;5021165;28;20078;-56
2023/11/18 13:51:56;;;;;;;78.82;74.85;;;;;;;;;;5021563;28;20029;-59
2023/11/18 13:54:22;;;;;;;79.72;75.57;;;;;;;;;;5023212;28;20066;-57
2023/11/18 13:56:49;;;;;;;77.07;73.25;;;;;;;;;;5013539;28;20034;-57
2023/11/18 13:59:15;;;;;;;78.57;74.40;;;;;;;;;;5020774;28;20041;-57
2023/11/18 14:01:40;;;;;;;73.43;69.63;;;;;;;;;;5021420;28;20040;-60
2023/11/18 14:04:06;;;;;;;75.97;72.03;;;;;;;;;;5019422;28;20037;-61
2023/11/18 14:06:32;;;;;;;72.10;68.00;;;;;;;;;;5024071;28;20150;-60
2023/11/18 14:08:57;;;;;;;74.13;70.22;;;;;;;;;;5025985;28;20419;-61
2023/11/18 14:11:24;;;;;;;77.05;72.80;;;;;;;;;;5024646;28;20094;-61
2023/11/18 14:13:51;;;;;;;67.53;64.13;;;;;;;;;;5023181;28;20100;-60
2023/11/18 14:16:20;;;;;;;63.72;60.53;;;;;;;;;;5027403;28;20040;-61
2023/11/18 14:18:45;;;;;;;62.00;58.75;;;;;;;;;;5028200;28;20116;-60
2023/11/18 14:21:14;;;;;;;66.90;63.50;;;;;;;;;;5025114;28;20867;-61
2023/11/18 14:23:39;;;;;;;64.00;60.38;;;;;;;;;;5024955;28;20051;-61